sensor_id;sensor_type;location;lat;lon;timestamp;P1;durP1;ratioP1;P2;durP2;ratioP2
30235;SDS011;17048;53.092;8.746;2023-07-08T00:00:16;7.15;;;4.07;;
30235;SDS011;17048;53.092;8.746;2023-07-08T00:02:47;6.82;;;4.05;;
30235;SDS011;17048;53.092;8.746;2023-07-08T00:05:16;7.88;;;4.18;;
30235;SDS011;17048;53.092;8.746;2023-07-08T00:08:00;8.95;;;4.35;;
30235;SDS011;17048;53.092;8.746;2023-07-08T00:10:40;8.05;;;3.97;;
30235;SDS011;17048;53.092;8.746;2023-07-08T00:13:16;12.20;;;4.95;;
30235;SDS011;17048;53.092;8.746;2023-07-08T00:15:58;6.75;;;4.15;;
30235;SDS011;17048;53.092;8.746;2023-07-08T00:18:31;7.88;;;4.43;;
30235;SDS011;17048;53.092;8.746;2023-07-08T00:21:15;12.57;;;4.55;;
30235;SDS011;17048;53.092;8.746;2023-07-08T00:23:50;8.57;;;4.22;;
30235;SDS011;17048;53.092;8.746;2023-07-08T00:29:15;8.30;;;4.45;;
30235;SDS011;17048;53.092;8.746;2023-07-08T00:31:53;7.85;;;4.60;;
30235;SDS011;17048;53.092;8.746;2023-07-08T00:34:28;8.93;;;4.70;;
30235;SDS011;17048;53.092;8.746;2023-07-08T00:37:07;10.30;;;4.80;;
30235;SDS011;17048;53.092;8.746;2023-07-08T00:39:42;9.15;;;4.18;;
30235;SDS011;17048;53.092;8.746;2023-07-08T00:42:21;8.65;;;4.97;;
30235;SDS011;17048;53.092;8.746;2023-07-08T00:44:57;7.28;;;4.18;;
30235;SDS011;17048;53.092;8.746;2023-07-08T00:47:24;7.25;;;4.95;;
30235;SDS011;17048;53.092;8.746;2023-07-08T00:49:58;6.50;;;4.10;;
30235;SDS011;17048;53.092;8.746;2023-07-08T00:52:30;8.68;;;3.70;;
30235;SDS011;17048;53.092;8.746;2023-07-08T00:55:07;8.80;;;4.82;;
30235;SDS011;17048;53.092;8.746;2023-07-08T00:57:42;8.63;;;4.63;;
30235;SDS011;17048;53.092;8.746;2023-07-08T01:00:19;6.43;;;4.25;;
30235;SDS011;17048;53.092;8.746;2023-07-08T01:02:59;11.30;;;5.30;;
30235;SDS011;17048;53.092;8.746;2023-07-08T01:05:39;9.80;;;4.65;;
30235;SDS011;17048;53.092;8.746;2023-07-08T01:08:23;10.88;;;4.45;;
30235;SDS011;17048;53.092;8.746;2023-07-08T01:11:00;8.82;;;4.93;;
30235;SDS011;17048;53.092;8.746;2023-07-08T01:13:34;12.63;;;4.03;;
30235;SDS011;17048;53.092;8.746;2023-07-08T01:16:09;12.43;;;4.75;;
30235;SDS011;17048;53.092;8.746;2023-07-08T01:18:43;11.55;;;4.78;;
30235;SDS011;17048;53.092;8.746;2023-07-08T01:24:18;11.27;;;4.55;;
30235;SDS011;17048;53.092;8.746;2023-07-08T01:26:49;6.50;;;3.90;;
30235;SDS011;17048;53.092;8.746;2023-07-08T01:29:34;7.43;;;5.22;;
30235;SDS011;17048;53.092;8.746;2023-07-08T01:32:03;10.98;;;5.07;;
30235;SDS011;17048;53.092;8.746;2023-07-08T01:34:55;9.02;;;4.90;;
30235;SDS011;17048;53.092;8.746;2023-07-08T01:37:37;10.77;;;5.07;;
30235;SDS011;17048;53.092;8.746;2023-07-08T01:40:35;8.35;;;4.57;;
30235;SDS011;17048;53.092;8.746;2023-07-08T01:43:26;8.65;;;4.60;;
30235;SDS011;17048;53.092;8.746;2023-07-08T01:46:03;10.55;;;4.78;;
30235;SDS011;17048;53.092;8.746;2023-07-08T01:48:45;7.03;;;4.35;;
30235;SDS011;17048;53.092;8.746;2023-07-08T01:51:16;7.18;;;4.78;;
30235;SDS011;17048;53.092;8.746;2023-07-08T01:53:49;10.63;;;4.53;;
30235;SDS011;17048;53.092;8.746;2023-07-08T01:56:24;9.70;;;4.57;;
30235;SDS011;17048;53.092;8.746;2023-07-08T01:58:57;14.30;;;5.50;;
30235;SDS011;17048;53.092;8.746;2023-07-08T02:01:30;9.63;;;5.20;;
30235;SDS011;17048;53.092;8.746;2023-07-08T02:04:05;15.30;;;5.25;;
30235;SDS011;17048;53.092;8.746;2023-07-08T02:06:38;6.45;;;4.75;;
30235;SDS011;17048;53.092;8.746;2023-07-08T02:09:12;11.68;;;5.63;;
30235;SDS011;17048;53.092;8.746;2023-07-08T02:11:42;7.88;;;4.47;;
30235;SDS011;17048;53.092;8.746;2023-07-08T02:14:11;8.07;;;4.72;;
30235;SDS011;17048;53.092;8.746;2023-07-08T02:17:03;10.65;;;5.30;;
30235;SDS011;17048;53.092;8.746;2023-07-08T02:19:36;10.15;;;5.53;;
30235;SDS011;17048;53.092;8.746;2023-07-08T02:22:03;9.32;;;4.95;;
30235;SDS011;17048;53.092;8.746;2023-07-08T02:24:33;8.32;;;5.13;;
30235;SDS011;17048;53.092;8.746;2023-07-08T02:27:26;12.52;;;5.40;;
30235;SDS011;17048;53.092;8.746;2023-07-08T02:30:12;6.57;;;5.07;;
30235;SDS011;17048;53.092;8.746;2023-07-08T02:32:50;9.45;;;5.07;;
30235;SDS011;17048;53.092;8.746;2023-07-08T02:35:29;11.32;;;5.65;;
30235;SDS011;17048;53.092;8.746;2023-07-08T02:38:09;9.48;;;5.60;;
30235;SDS011;17048;53.092;8.746;2023-07-08T02:41:05;8.57;;;5.63;;
30235;SDS011;17048;53.092;8.746;2023-07-08T02:43:45;8.48;;;5.28;;
30235;SDS011;17048;53.092;8.746;2023-07-08T02:46:31;13.05;;;6.18;;
30235;SDS011;17048;53.092;8.746;2023-07-08T02:49:01;10.52;;;6.38;;
30235;SDS011;17048;53.092;8.746;2023-07-08T02:51:28;10.48;;;6.75;;
30235;SDS011;17048;53.092;8.746;2023-07-08T02:54:03;14.73;;;7.60;;
30235;SDS011;17048;53.092;8.746;2023-07-08T02:56:52;12.32;;;7.60;;
30235;SDS011;17048;53.092;8.746;2023-07-08T02:59:23;19.63;;;7.78;;
30235;SDS011;17048;53.092;8.746;2023-07-08T03:02:26;16.20;;;7.40;;
30235;SDS011;17048;53.092;8.746;2023-07-08T03:04:57;13.35;;;6.60;;
30235;SDS011;17048;53.092;8.746;2023-07-08T03:07:25;12.90;;;7.28;;
30235;SDS011;17048;53.092;8.746;2023-07-08T03:09:55;10.70;;;7.20;;
30235;SDS011;17048;53.092;8.746;2023-07-08T03:12:24;12.10;;;6.68;;
30235;SDS011;17048;53.092;8.746;2023-07-08T03:14:58;13.10;;;7.07;;
30235;SDS011;17048;53.092;8.746;2023-07-08T03:17:25;13.30;;;7.53;;
30235;SDS011;17048;53.092;8.746;2023-07-08T03:19:53;13.25;;;7.28;;
30235;SDS011;17048;53.092;8.746;2023-07-08T03:22:52;10.37;;;7.97;;
30235;SDS011;17048;53.092;8.746;2023-07-08T03:25:26;14.02;;;7.43;;
30235;SDS011;17048;53.092;8.746;2023-07-08T03:28:00;12.93;;;7.30;;
30235;SDS011;17048;53.092;8.746;2023-07-08T03:30:30;13.52;;;6.55;;
30235;SDS011;17048;53.092;8.746;2023-07-08T03:32:56;11.18;;;7.03;;
30235;SDS011;17048;53.092;8.746;2023-07-08T03:35:47;12.77;;;6.88;;
30235;SDS011;17048;53.092;8.746;2023-07-08T03:38:17;11.57;;;6.97;;
30235;SDS011;17048;53.092;8.746;2023-07-08T03:40:45;12.32;;;7.18;;
30235;SDS011;17048;53.092;8.746;2023-07-08T03:46:11;17.73;;;7.43;;
30235;SDS011;17048;53.092;8.746;2023-07-08T03:48:40;13.65;;;6.78;;
30235;SDS011;17048;53.092;8.746;2023-07-08T03:51:29;15.15;;;7.88;;
30235;SDS011;17048;53.092;8.746;2023-07-08T03:54:13;13.63;;;7.07;;
30235;SDS011;17048;53.092;8.746;2023-07-08T03:56:48;11.60;;;7.45;;
30235;SDS011;17048;53.092;8.746;2023-07-08T03:59:18;12.45;;;6.60;;
30235;SDS011;17048;53.092;8.746;2023-07-08T04:02:10;13.85;;;7.53;;
30235;SDS011;17048;53.092;8.746;2023-07-08T04:05:00;14.82;;;6.85;;
30235;SDS011;17048;53.092;8.746;2023-07-08T04:07:36;11.73;;;7.15;;
30235;SDS011;17048;53.092;8.746;2023-07-08T04:10:05;17.17;;;6.60;;
30235;SDS011;17048;53.092;8.746;2023-07-08T04:12:40;12.60;;;6.55;;
30235;SDS011;17048;53.092;8.746;2023-07-08T04:15:10;11.10;;;6.53;;
30235;SDS011;17048;53.092;8.746;2023-07-08T04:17:48;8.10;;;5.65;;
30235;SDS011;17048;53.092;8.746;2023-07-08T04:20:19;9.85;;;5.15;;
30235;SDS011;17048;53.092;8.746;2023-07-08T04:23:06;8.27;;;5.65;;
30235;SDS011;17048;53.092;8.746;2023-07-08T04:25:36;7.53;;;4.45;;
30235;SDS011;17048;53.092;8.746;2023-07-08T04:29:15;13.18;;;5.20;;
30235;SDS011;17048;53.092;8.746;2023-07-08T04:31:48;11.45;;;5.57;;
30235;SDS011;17048;53.092;8.746;2023-07-08T04:34:22;6.32;;;4.85;;
30235;SDS011;17048;53.092;8.746;2023-07-08T04:36:52;14.05;;;5.50;;
30235;SDS011;17048;53.092;8.746;2023-07-08T04:39:21;10.38;;;4.80;;
30235;SDS011;17048;53.092;8.746;2023-07-08T04:41:56;12.38;;;5.60;;
30235;SDS011;17048;53.092;8.746;2023-07-08T04:44:43;9.35;;;4.85;;
30235;SDS011;17048;53.092;8.746;2023-07-08T04:47:33;8.30;;;4.53;;
30235;SDS011;17048;53.092;8.746;2023-07-08T04:50:12;8.75;;;4.57;;
30235;SDS011;17048;53.092;8.746;2023-07-08T04:52:43;7.00;;;4.38;;
30235;SDS011;17048;53.092;8.746;2023-07-08T04:55:12;10.88;;;4.60;;
30235;SDS011;17048;53.092;8.746;2023-07-08T04:57:46;10.23;;;4.53;;
30235;SDS011;17048;53.092;8.746;2023-07-08T05:00:15;6.90;;;4.18;;
30235;SDS011;17048;53.092;8.746;2023-07-08T05:02:43;10.98;;;4.82;;
30235;SDS011;17048;53.092;8.746;2023-07-08T05:05:22;9.57;;;4.18;;
30235;SDS011;17048;53.092;8.746;2023-07-08T05:07:54;4.88;;;4.13;;
30235;SDS011;17048;53.092;8.746;2023-07-08T05:10:24;9.25;;;5.03;;
30235;SDS011;17048;53.092;8.746;2023-07-08T05:12:59;6.35;;;4.10;;
30235;SDS011;17048;53.092;8.746;2023-07-08T05:15:32;6.50;;;4.00;;
30235;SDS011;17048;53.092;8.746;2023-07-08T05:18:06;11.07;;;3.95;;
30235;SDS011;17048;53.092;8.746;2023-07-08T05:20:51;5.07;;;3.67;;
30235;SDS011;17048;53.092;8.746;2023-07-08T05:23:40;5.05;;;3.63;;
30235;SDS011;17048;53.092;8.746;2023-07-08T05:26:11;7.55;;;3.85;;
30235;SDS011;17048;53.092;8.746;2023-07-08T05:28:44;5.30;;;4.05;;
30235;SDS011;17048;53.092;8.746;2023-07-08T05:31:17;5.70;;;3.65;;
30235;SDS011;17048;53.092;8.746;2023-07-08T05:33:52;6.93;;;3.70;;
30235;SDS011;17048;53.092;8.746;2023-07-08T05:36:31;5.65;;;2.97;;
30235;SDS011;17048;53.092;8.746;2023-07-08T05:39:03;5.28;;;3.47;;
30235;SDS011;17048;53.092;8.746;2023-07-08T05:41:41;7.53;;;3.10;;
30235;SDS011;17048;53.092;8.746;2023-07-08T05:44:18;6.65;;;3.28;;
30235;SDS011;17048;53.092;8.746;2023-07-08T05:46:57;6.65;;;3.25;;
30235;SDS011;17048;53.092;8.746;2023-07-08T05:49:24;11.55;;;3.33;;
30235;SDS011;17048;53.092;8.746;2023-07-08T05:52:22;4.10;;;2.97;;
30235;SDS011;17048;53.092;8.746;2023-07-08T05:54:58;4.70;;;2.75;;
30235;SDS011;17048;53.092;8.746;2023-07-08T05:57:36;4.70;;;3.08;;
30235;SDS011;17048;53.092;8.746;2023-07-08T06:00:07;4.32;;;2.95;;
30235;SDS011;17048;53.092;8.746;2023-07-08T06:02:34;6.68;;;3.00;;
30235;SDS011;17048;53.092;8.746;2023-07-08T06:05:02;6.82;;;3.17;;
30235;SDS011;17048;53.092;8.746;2023-07-08T06:07:32;4.07;;;2.80;;
30235;SDS011;17048;53.092;8.746;2023-07-08T06:10:00;7.10;;;2.70;;
30235;SDS011;17048;53.092;8.746;2023-07-08T06:12:36;7.88;;;2.85;;
30235;SDS011;17048;53.092;8.746;2023-07-08T06:15:04;8.38;;;3.25;;
30235;SDS011;17048;53.092;8.746;2023-07-08T06:18:02;10.25;;;3.17;;
30235;SDS011;17048;53.092;8.746;2023-07-08T06:20:38;3.55;;;2.20;;
30235;SDS011;17048;53.092;8.746;2023-07-08T06:23:10;4.40;;;2.40;;
30235;SDS011;17048;53.092;8.746;2023-07-08T06:25:57;2.58;;;1.95;;
30235;SDS011;17048;53.092;8.746;2023-07-08T06:28:36;5.28;;;2.45;;
30235;SDS011;17048;53.092;8.746;2023-07-08T06:31:06;5.28;;;2.72;;
30235;SDS011;17048;53.092;8.746;2023-07-08T06:33:42;13.85;;;2.90;;
30235;SDS011;17048;53.092;8.746;2023-07-08T06:36:15;7.53;;;2.97;;
30235;SDS011;17048;53.092;8.746;2023-07-08T06:38:47;5.00;;;2.63;;
30235;SDS011;17048;53.092;8.746;2023-07-08T06:41:18;7.60;;;2.50;;
30235;SDS011;17048;53.092;8.746;2023-07-08T06:43:51;4.80;;;2.78;;
30235;SDS011;17048;53.092;8.746;2023-07-08T06:49:25;4.57;;;2.60;;
30235;SDS011;17048;53.092;8.746;2023-07-08T06:52:18;7.97;;;2.35;;
30235;SDS011;17048;53.092;8.746;2023-07-08T06:54:50;4.55;;;2.83;;
30235;SDS011;17048;53.092;8.746;2023-07-08T06:57:19;5.57;;;2.80;;
30235;SDS011;17048;53.092;8.746;2023-07-08T06:59:50;5.35;;;3.13;;
30235;SDS011;17048;53.092;8.746;2023-07-08T07:02:19;8.82;;;2.55;;
30235;SDS011;17048;53.092;8.746;2023-07-08T07:04:57;3.22;;;2.33;;
30235;SDS011;17048;53.092;8.746;2023-07-08T07:07:24;5.05;;;2.45;;
30235;SDS011;17048;53.092;8.746;2023-07-08T07:09:53;6.78;;;2.13;;
30235;SDS011;17048;53.092;8.746;2023-07-08T07:12:24;6.80;;;2.67;;
30235;SDS011;17048;53.092;8.746;2023-07-08T07:14:56;5.20;;;2.42;;
30235;SDS011;17048;53.092;8.746;2023-07-08T07:17:35;4.63;;;2.42;;
30235;SDS011;17048;53.092;8.746;2023-07-08T07:20:16;3.47;;;2.33;;
30235;SDS011;17048;53.092;8.746;2023-07-08T07:22:46;6.10;;;2.78;;
30235;SDS011;17048;53.092;8.746;2023-07-08T07:25:23;6.22;;;2.35;;
30235;SDS011;17048;53.092;8.746;2023-07-08T07:27:55;5.35;;;2.60;;
30235;SDS011;17048;53.092;8.746;2023-07-08T07:30:24;3.53;;;2.22;;
30235;SDS011;17048;53.092;8.746;2023-07-08T07:32:53;11.85;;;2.50;;
30235;SDS011;17048;53.092;8.746;2023-07-08T07:35:23;5.07;;;2.72;;
30235;SDS011;17048;53.092;8.746;2023-07-08T07:38:21;5.65;;;2.83;;
30235;SDS011;17048;53.092;8.746;2023-07-08T07:41:17;6.20;;;3.08;;
30235;SDS011;17048;53.092;8.746;2023-07-08T07:43:47;4.07;;;2.15;;
30235;SDS011;17048;53.092;8.746;2023-07-08T07:46:21;8.30;;;2.28;;
30235;SDS011;17048;53.092;8.746;2023-07-08T07:49:02;4.82;;;2.58;;
30235;SDS011;17048;53.092;8.746;2023-07-08T07:51:45;6.13;;;2.58;;
30235;SDS011;17048;53.092;8.746;2023-07-08T07:54:17;5.43;;;2.25;;
30235;SDS011;17048;53.092;8.746;2023-07-08T07:56:46;5.43;;;2.47;;
30235;SDS011;17048;53.092;8.746;2023-07-08T07:59:16;3.20;;;2.28;;
30235;SDS011;17048;53.092;8.746;2023-07-08T08:01:44;7.75;;;2.10;;
30235;SDS011;17048;53.092;8.746;2023-07-08T08:04:20;3.25;;;2.40;;
30235;SDS011;17048;53.092;8.746;2023-07-08T08:06:59;4.82;;;2.85;;
30235;SDS011;17048;53.092;8.746;2023-07-08T08:09:28;2.78;;;2.30;;
30235;SDS011;17048;53.092;8.746;2023-07-08T08:11:55;9.57;;;2.88;;
30235;SDS011;17048;53.092;8.746;2023-07-08T08:14:27;4.47;;;2.38;;
30235;SDS011;17048;53.092;8.746;2023-07-08T08:17:00;8.35;;;2.53;;
30235;SDS011;17048;53.092;8.746;2023-07-08T08:19:38;3.80;;;2.20;;
30235;SDS011;17048;53.092;8.746;2023-07-08T08:22:27;3.47;;;2.30;;
30235;SDS011;17048;53.092;8.746;2023-07-08T08:24:58;3.85;;;2.75;;
30235;SDS011;17048;53.092;8.746;2023-07-08T08:27:28;4.20;;;2.80;;
30235;SDS011;17048;53.092;8.746;2023-07-08T08:29:55;3.45;;;2.40;;
30235;SDS011;17048;53.092;8.746;2023-07-08T08:32:25;5.20;;;2.40;;
30235;SDS011;17048;53.092;8.746;2023-07-08T08:35:02;3.50;;;2.10;;
30235;SDS011;17048;53.092;8.746;2023-07-08T08:37:35;4.00;;;2.40;;
30235;SDS011;17048;53.092;8.746;2023-07-08T08:40:11;3.92;;;2.33;;
30235;SDS011;17048;53.092;8.746;2023-07-08T08:42:44;3.92;;;2.72;;
30235;SDS011;17048;53.092;8.746;2023-07-08T08:45:20;3.67;;;2.45;;
30235;SDS011;17048;53.092;8.746;2023-07-08T08:47:49;5.68;;;2.63;;
30235;SDS011;17048;53.092;8.746;2023-07-08T08:50:36;6.57;;;2.27;;
30235;SDS011;17048;53.092;8.746;2023-07-08T08:53:24;7.28;;;2.60;;
30235;SDS011;17048;53.092;8.746;2023-07-08T08:56:00;6.20;;;2.60;;
30235;SDS011;17048;53.092;8.746;2023-07-08T09:01:38;5.88;;;2.50;;
30235;SDS011;17048;53.092;8.746;2023-07-08T09:04:12;5.60;;;2.53;;
30235;SDS011;17048;53.092;8.746;2023-07-08T09:06:47;4.80;;;2.42;;
30235;SDS011;17048;53.092;8.746;2023-07-08T09:09:30;5.55;;;2.63;;
30235;SDS011;17048;53.092;8.746;2023-07-08T09:12:10;4.25;;;2.13;;
30235;SDS011;17048;53.092;8.746;2023-07-08T09:14:44;3.13;;;2.28;;
30235;SDS011;17048;53.092;8.746;2023-07-08T09:17:28;5.72;;;2.30;;
30235;SDS011;17048;53.092;8.746;2023-07-08T09:20:20;6.30;;;2.33;;
30235;SDS011;17048;53.092;8.746;2023-07-08T09:23:09;4.72;;;2.20;;
30235;SDS011;17048;53.092;8.746;2023-07-08T09:26:21;4.30;;;2.20;;
30235;SDS011;17048;53.092;8.746;2023-07-08T09:28:52;7.05;;;2.55;;
30235;SDS011;17048;53.092;8.746;2023-07-08T09:31:40;4.88;;;2.60;;
30235;SDS011;17048;53.092;8.746;2023-07-08T09:34:35;3.67;;;2.22;;
30235;SDS011;17048;53.092;8.746;2023-07-08T09:37:28;3.30;;;2.30;;
30235;SDS011;17048;53.092;8.746;2023-07-08T09:40:02;9.75;;;2.30;;
30235;SDS011;17048;53.092;8.746;2023-07-08T09:45:52;5.18;;;2.55;;
30235;SDS011;17048;53.092;8.746;2023-07-08T09:48:33;4.25;;;2.10;;
30235;SDS011;17048;53.092;8.746;2023-07-08T09:51:04;5.55;;;2.20;;
30235;SDS011;17048;53.092;8.746;2023-07-08T09:53:36;4.72;;;2.50;;
30235;SDS011;17048;53.092;8.746;2023-07-08T09:56:19;6.82;;;2.47;;
30235;SDS011;17048;53.092;8.746;2023-07-08T09:58:46;6.50;;;2.20;;
30235;SDS011;17048;53.092;8.746;2023-07-08T10:01:25;4.38;;;2.20;;
30235;SDS011;17048;53.092;8.746;2023-07-08T10:04:12;3.67;;;2.25;;
30235;SDS011;17048;53.092;8.746;2023-07-08T10:06:40;5.68;;;2.38;;
30235;SDS011;17048;53.092;8.746;2023-07-08T10:09:18;6.05;;;2.70;;
30235;SDS011;17048;53.092;8.746;2023-07-08T10:14:37;2.83;;;2.42;;
30235;SDS011;17048;53.092;8.746;2023-07-08T10:17:24;6.78;;;2.10;;
30235;SDS011;17048;53.092;8.746;2023-07-08T10:19:52;3.45;;;2.05;;
30235;SDS011;17048;53.092;8.746;2023-07-08T10:22:45;3.53;;;2.08;;
30235;SDS011;17048;53.092;8.746;2023-07-08T10:28:03;2.72;;;2.10;;
30235;SDS011;17048;53.092;8.746;2023-07-08T10:30:53;3.72;;;2.35;;
30235;SDS011;17048;53.092;8.746;2023-07-08T10:57:52;3.35;;;2.10;;
30235;SDS011;17048;53.092;8.746;2023-07-08T11:06:57;5.78;;;2.30;;
30235;SDS011;17048;53.092;8.746;2023-07-08T11:09:39;4.10;;;2.15;;
30235;SDS011;17048;53.092;8.746;2023-07-08T11:15:40;3.28;;;2.33;;
30235;SDS011;17048;53.092;8.746;2023-07-08T11:21:24;5.13;;;2.47;;
30235;SDS011;17048;53.092;8.746;2023-07-08T11:27:19;6.55;;;2.47;;
30235;SDS011;17048;53.092;8.746;2023-07-08T11:33:02;4.05;;;2.47;;
30235;SDS011;17048;53.092;8.746;2023-07-08T11:35:55;3.55;;;2.20;;
30235;SDS011;17048;53.092;8.746;2023-07-08T11:38:50;4.03;;;2.42;;
30235;SDS011;17048;53.092;8.746;2023-07-08T11:41:25;4.38;;;2.47;;
30235;SDS011;17048;53.092;8.746;2023-07-08T11:44:03;3.65;;;2.78;;
30235;SDS011;17048;53.092;8.746;2023-07-08T11:47:19;7.35;;;2.85;;
30235;SDS011;17048;53.092;8.746;2023-07-08T11:49:53;4.90;;;2.53;;
30235;SDS011;17048;53.092;8.746;2023-07-08T11:52:33;5.15;;;2.53;;
30235;SDS011;17048;53.092;8.746;2023-07-08T11:55:03;6.28;;;2.85;;
30235;SDS011;17048;53.092;8.746;2023-07-08T11:57:41;4.68;;;2.35;;
30235;SDS011;17048;53.092;8.746;2023-07-08T12:00:18;8.65;;;2.92;;
30235;SDS011;17048;53.092;8.746;2023-07-08T12:02:57;3.90;;;2.47;;
30235;SDS011;17048;53.092;8.746;2023-07-08T12:05:33;4.10;;;2.60;;
30235;SDS011;17048;53.092;8.746;2023-07-08T12:08:14;4.70;;;2.50;;
30235;SDS011;17048;53.092;8.746;2023-07-08T12:10:50;3.70;;;2.42;;
30235;SDS011;17048;53.092;8.746;2023-07-08T12:13:27;6.55;;;2.75;;
30235;SDS011;17048;53.092;8.746;2023-07-08T12:16:01;4.10;;;2.80;;
30235;SDS011;17048;53.092;8.746;2023-07-08T12:18:53;6.35;;;2.92;;
30235;SDS011;17048;53.092;8.746;2023-07-08T12:21:25;3.80;;;2.45;;
30235;SDS011;17048;53.092;8.746;2023-07-08T12:23:53;4.22;;;3.13;;
30235;SDS011;17048;53.092;8.746;2023-07-08T12:26:21;2.97;;;2.22;;
30235;SDS011;17048;53.092;8.746;2023-07-08T12:28:54;3.97;;;2.60;;
30235;SDS011;17048;53.092;8.746;2023-07-08T12:31:23;5.03;;;2.97;;
30235;SDS011;17048;53.092;8.746;2023-07-08T12:33:58;5.28;;;2.42;;
30235;SDS011;17048;53.092;8.746;2023-07-08T12:37:08;4.10;;;2.53;;
30235;SDS011;17048;53.092;8.746;2023-07-08T12:39:53;3.45;;;2.58;;
30235;SDS011;17048;53.092;8.746;2023-07-08T12:42:26;3.60;;;2.80;;
30235;SDS011;17048;53.092;8.746;2023-07-08T12:45:24;4.47;;;3.17;;
30235;SDS011;17048;53.092;8.746;2023-07-08T12:47:56;7.30;;;3.00;;
30235;SDS011;17048;53.092;8.746;2023-07-08T12:50:39;9.45;;;3.45;;
30235;SDS011;17048;53.092;8.746;2023-07-08T12:53:06;4.28;;;3.13;;
30235;SDS011;17048;53.092;8.746;2023-07-08T12:55:39;5.53;;;3.25;;
30235;SDS011;17048;53.092;8.746;2023-07-08T12:58:28;4.15;;;3.03;;
30235;SDS011;17048;53.092;8.746;2023-07-08T13:01:20;12.23;;;2.88;;
30235;SDS011;17048;53.092;8.746;2023-07-08T13:04:09;5.65;;;3.05;;
30235;SDS011;17048;53.092;8.746;2023-07-08T13:06:43;4.22;;;2.58;;
30235;SDS011;17048;53.092;8.746;2023-07-08T13:12:15;5.03;;;2.75;;
30235;SDS011;17048;53.092;8.746;2023-07-08T13:14:43;6.47;;;2.78;;
30235;SDS011;17048;53.092;8.746;2023-07-08T13:17:34;5.07;;;2.85;;
30235;SDS011;17048;53.092;8.746;2023-07-08T13:20:09;5.00;;;3.10;;
30235;SDS011;17048;53.092;8.746;2023-07-08T13:22:51;9.80;;;3.15;;
30235;SDS011;17048;53.092;8.746;2023-07-08T13:25:30;7.88;;;3.20;;
30235;SDS011;17048;53.092;8.746;2023-07-08T13:30:55;3.70;;;3.08;;
30235;SDS011;17048;53.092;8.746;2023-07-08T13:33:32;4.55;;;2.72;;
30235;SDS011;17048;53.092;8.746;2023-07-08T13:36:08;4.88;;;3.28;;
30235;SDS011;17048;53.092;8.746;2023-07-08T13:39:05;5.43;;;2.92;;
30235;SDS011;17048;53.092;8.746;2023-07-08T13:41:36;4.90;;;2.95;;
30235;SDS011;17048;53.092;8.746;2023-07-08T13:44:06;4.85;;;3.17;;
30235;SDS011;17048;53.092;8.746;2023-07-08T13:52:21;4.22;;;2.97;;
30235;SDS011;17048;53.092;8.746;2023-07-08T13:54:53;7.40;;;2.90;;
30235;SDS011;17048;53.092;8.746;2023-07-08T13:57:37;4.22;;;2.92;;
30235;SDS011;17048;53.092;8.746;2023-07-08T14:00:20;5.40;;;3.38;;
30235;SDS011;17048;53.092;8.746;2023-07-08T14:02:50;4.18;;;2.78;;
30235;SDS011;17048;53.092;8.746;2023-07-08T14:05:22;6.07;;;3.22;;
30235;SDS011;17048;53.092;8.746;2023-07-08T14:07:49;6.25;;;3.70;;
30235;SDS011;17048;53.092;8.746;2023-07-08T14:10:22;4.45;;;3.08;;
30235;SDS011;17048;53.092;8.746;2023-07-08T14:12:54;5.72;;;3.78;;
30235;SDS011;17048;53.092;8.746;2023-07-08T14:15:25;6.30;;;3.35;;
30235;SDS011;17048;53.092;8.746;2023-07-08T14:18:16;6.13;;;3.53;;
30235;SDS011;17048;53.092;8.746;2023-07-08T14:20:45;5.57;;;3.35;;
30235;SDS011;17048;53.092;8.746;2023-07-08T14:23:22;5.70;;;2.85;;
30235;SDS011;17048;53.092;8.746;2023-07-08T14:25:56;8.48;;;3.08;;
30235;SDS011;17048;53.092;8.746;2023-07-08T14:28:33;5.65;;;3.42;;
30235;SDS011;17048;53.092;8.746;2023-07-08T14:31:09;4.72;;;3.05;;
30235;SDS011;17048;53.092;8.746;2023-07-08T14:33:38;5.85;;;4.15;;
30235;SDS011;17048;53.092;8.746;2023-07-08T14:36:09;5.05;;;3.38;;
30235;SDS011;17048;53.092;8.746;2023-07-08T14:38:52;5.05;;;3.50;;
30235;SDS011;17048;53.092;8.746;2023-07-08T14:41:22;6.90;;;3.33;;
30235;SDS011;17048;53.092;8.746;2023-07-08T14:44:22;4.55;;;3.55;;
30235;SDS011;17048;53.092;8.746;2023-07-08T14:47:09;4.85;;;3.08;;
30235;SDS011;17048;53.092;8.746;2023-07-08T14:49:40;6.25;;;3.13;;
30235;SDS011;17048;53.092;8.746;2023-07-08T14:52:14;5.90;;;3.97;;
30235;SDS011;17048;53.092;8.746;2023-07-08T14:54:44;5.85;;;3.45;;
30235;SDS011;17048;53.092;8.746;2023-07-08T14:57:32;5.70;;;2.90;;
30235;SDS011;17048;53.092;8.746;2023-07-08T15:00:14;6.70;;;3.35;;
30235;SDS011;17048;53.092;8.746;2023-07-08T15:02:46;6.63;;;3.90;;
30235;SDS011;17048;53.092;8.746;2023-07-08T15:05:18;6.32;;;3.78;;
30235;SDS011;17048;53.092;8.746;2023-07-08T15:07:55;5.85;;;3.55;;
30235;SDS011;17048;53.092;8.746;2023-07-08T15:10:30;5.47;;;3.45;;
30235;SDS011;17048;53.092;8.746;2023-07-08T15:12:58;7.63;;;3.38;;
30235;SDS011;17048;53.092;8.746;2023-07-08T15:15:33;7.53;;;3.58;;
30235;SDS011;17048;53.092;8.746;2023-07-08T15:18:12;5.68;;;4.05;;
30235;SDS011;17048;53.092;8.746;2023-07-08T15:20:46;6.10;;;3.88;;
30235;SDS011;17048;53.092;8.746;2023-07-08T15:23:14;6.03;;;3.80;;
30235;SDS011;17048;53.092;8.746;2023-07-08T15:25:45;5.18;;;3.80;;
30235;SDS011;17048;53.092;8.746;2023-07-08T15:28:57;6.30;;;4.40;;
30235;SDS011;17048;53.092;8.746;2023-07-08T15:31:20;11.13;;;5.03;;
30235;SDS011;17048;53.092;8.746;2023-07-08T15:37:00;10.23;;;5.68;;
30235;SDS011;17048;53.092;8.746;2023-07-08T15:39:30;8.43;;;4.28;;
30235;SDS011;17048;53.092;8.746;2023-07-08T15:42:03;9.23;;;5.00;;
30235;SDS011;17048;53.092;8.746;2023-07-08T15:44:31;6.78;;;4.32;;
30235;SDS011;17048;53.092;8.746;2023-07-08T15:46:58;8.32;;;4.65;;
30235;SDS011;17048;53.092;8.746;2023-07-08T15:49:34;8.77;;;4.55;;
30235;SDS011;17048;53.092;8.746;2023-07-08T15:52:05;6.93;;;4.03;;
30235;SDS011;17048;53.092;8.746;2023-07-08T15:54:32;6.10;;;4.10;;
30235;SDS011;17048;53.092;8.746;2023-07-08T15:57:03;5.15;;;3.72;;
30235;SDS011;17048;53.092;8.746;2023-07-08T15:59:32;5.13;;;4.28;;
30235;SDS011;17048;53.092;8.746;2023-07-08T16:02:03;7.95;;;4.18;;
30235;SDS011;17048;53.092;8.746;2023-07-08T16:04:51;9.05;;;4.05;;
30235;SDS011;17048;53.092;8.746;2023-07-08T16:07:23;7.25;;;3.95;;
30235;SDS011;17048;53.092;8.746;2023-07-08T16:09:56;8.50;;;3.85;;
30235;SDS011;17048;53.092;8.746;2023-07-08T16:12:28;7.22;;;4.10;;
30235;SDS011;17048;53.092;8.746;2023-07-08T16:15:15;7.05;;;4.20;;
30235;SDS011;17048;53.092;8.746;2023-07-08T16:18:08;6.28;;;3.92;;
30235;SDS011;17048;53.092;8.746;2023-07-08T16:20:41;7.22;;;4.07;;
30235;SDS011;17048;53.092;8.746;2023-07-08T16:23:39;7.90;;;3.70;;
30235;SDS011;17048;53.092;8.746;2023-07-08T16:27:00;11.00;;;4.65;;
30235;SDS011;17048;53.092;8.746;2023-07-08T16:33:06;6.97;;;4.70;;
30235;SDS011;17048;53.092;8.746;2023-07-08T16:35:47;8.00;;;3.92;;
30235;SDS011;17048;53.092;8.746;2023-07-08T16:38:28;5.70;;;3.85;;
30235;SDS011;17048;53.092;8.746;2023-07-08T16:41:21;8.82;;;3.25;;
30235;SDS011;17048;53.092;8.746;2023-07-08T16:44:13;7.28;;;3.58;;
30235;SDS011;17048;53.092;8.746;2023-07-08T16:47:07;6.97;;;3.80;;
30235;SDS011;17048;53.092;8.746;2023-07-08T16:49:48;8.60;;;4.13;;
30235;SDS011;17048;53.092;8.746;2023-07-08T16:52:34;19.88;;;11.25;;
30235;SDS011;17048;53.092;8.746;2023-07-08T16:55:45;6.75;;;3.97;;
30235;SDS011;17048;53.092;8.746;2023-07-08T16:58:35;7.55;;;3.88;;
30235;SDS011;17048;53.092;8.746;2023-07-08T17:01:22;8.15;;;4.28;;
30235;SDS011;17048;53.092;8.746;2023-07-08T17:04:14;7.18;;;4.40;;
30235;SDS011;17048;53.092;8.746;2023-07-08T17:10:13;11.35;;;3.65;;
30235;SDS011;17048;53.092;8.746;2023-07-08T17:13:15;6.30;;;3.72;;
30235;SDS011;17048;53.092;8.746;2023-07-08T17:15:59;5.43;;;3.92;;